sensor_id;sensor_type;location;lat;lon;timestamp;P1;durP1;ratioP1;P2;durP2;ratioP2
15192;SDS011;7697;51.630;7.484;2022-12-11T00:03:26;41.17;;;21.97;;
15192;SDS011;7697;51.630;7.484;2022-12-11T00:08:27;49.70;;;24.10;;
15192;SDS011;7697;51.630;7.484;2022-12-11T00:13:29;38.90;;;22.10;;
15192;SDS011;7697;51.630;7.484;2022-12-11T00:18:33;44.80;;;23.17;;
15192;SDS011;7697;51.630;7.484;2022-12-11T00:23:35;41.00;;;22.27;;
15192;SDS011;7697;51.630;7.484;2022-12-11T00:28:37;41.20;;;21.93;;
15192;SDS011;7697;51.630;7.484;2022-12-11T00:33:40;40.23;;;23.27;;
15192;SDS011;7697;51.630;7.484;2022-12-11T00:38:42;49.73;;;24.57;;
15192;SDS011;7697;51.630;7.484;2022-12-11T00:43:44;55.60;;;27.07;;
15192;SDS011;7697;51.630;7.484;2022-12-11T00:48:48;50.70;;;24.57;;
15192;SDS011;7697;51.630;7.484;2022-12-11T00:53:50;56.10;;;26.87;;
15192;SDS011;7697;51.630;7.484;2022-12-11T00:58:52;61.27;;;27.17;;
15192;SDS011;7697;51.630;7.484;2022-12-11T01:03:55;48.93;;;23.40;;
15192;SDS011;7697;51.630;7.484;2022-12-11T01:08:57;49.03;;;23.57;;
15192;SDS011;7697;51.630;7.484;2022-12-11T01:14:16;51.03;;;22.50;;
15192;SDS011;7697;51.630;7.484;2022-12-11T01:19:19;50.50;;;24.60;;
15192;SDS011;7697;51.630;7.484;2022-12-11T01:24:20;50.27;;;24.03;;
15192;SDS011;7697;51.630;7.484;2022-12-11T01:29:22;54.17;;;24.97;;
15192;SDS011;7697;51.630;7.484;2022-12-11T01:34:25;52.10;;;25.10;;
15192;SDS011;7697;51.630;7.484;2022-12-11T01:39:29;48.53;;;23.37;;
15192;SDS011;7697;51.630;7.484;2022-12-11T01:50:24;43.10;;;23.90;;
15192;SDS011;7697;51.630;7.484;2022-12-11T01:55:26;37.23;;;20.87;;
15192;SDS011;7697;51.630;7.484;2022-12-11T02:00:27;39.63;;;20.87;;
15192;SDS011;7697;51.630;7.484;2022-12-11T02:05:31;39.70;;;21.47;;
15192;SDS011;7697;51.630;7.484;2022-12-11T02:10:36;37.93;;;20.33;;
15192;SDS011;7697;51.630;7.484;2022-12-11T02:15:50;36.33;;;19.43;;
15192;SDS011;7697;51.630;7.484;2022-12-11T02:21:01;35.67;;;19.20;;
15192;SDS011;7697;51.630;7.484;2022-12-11T02:26:18;36.63;;;19.13;;
15192;SDS011;7697;51.630;7.484;2022-12-11T02:31:31;39.80;;;20.10;;
15192;SDS011;7697;51.630;7.484;2022-12-11T02:36:39;39.07;;;21.17;;
15192;SDS011;7697;51.630;7.484;2022-12-11T02:41:45;39.90;;;21.60;;
15192;SDS011;7697;51.630;7.484;2022-12-11T02:46:52;40.37;;;20.23;;
15192;SDS011;7697;51.630;7.484;2022-12-11T02:51:55;45.37;;;23.53;;
15192;SDS011;7697;51.630;7.484;2022-12-11T02:56:59;40.17;;;21.57;;
15192;SDS011;7697;51.630;7.484;2022-12-11T03:02:06;39.73;;;20.13;;
15192;SDS011;7697;51.630;7.484;2022-12-11T03:07:08;41.40;;;21.13;;
15192;SDS011;7697;51.630;7.484;2022-12-11T03:12:16;38.13;;;20.57;;
15192;SDS011;7697;51.630;7.484;2022-12-11T03:17:23;38.47;;;20.50;;
15192;SDS011;7697;51.630;7.484;2022-12-11T03:22:32;41.27;;;21.20;;
15192;SDS011;7697;51.630;7.484;2022-12-11T03:27:40;41.17;;;20.10;;
15192;SDS011;7697;51.630;7.484;2022-12-11T03:32:48;59.07;;;27.97;;
15192;SDS011;7697;51.630;7.484;2022-12-11T03:37:53;45.87;;;20.87;;
15192;SDS011;7697;51.630;7.484;2022-12-11T03:43:00;56.33;;;23.83;;
15192;SDS011;7697;51.630;7.484;2022-12-11T03:48:05;52.77;;;23.67;;
15192;SDS011;7697;51.630;7.484;2022-12-11T03:53:09;50.83;;;22.33;;
15192;SDS011;7697;51.630;7.484;2022-12-11T03:58:11;60.00;;;25.73;;
15192;SDS011;7697;51.630;7.484;2022-12-11T04:03:15;54.13;;;24.03;;
15192;SDS011;7697;51.630;7.484;2022-12-11T04:08:17;41.70;;;20.33;;
15192;SDS011;7697;51.630;7.484;2022-12-11T04:13:20;53.90;;;23.90;;
15192;SDS011;7697;51.630;7.484;2022-12-11T04:18:26;55.30;;;24.40;;
15192;SDS011;7697;51.630;7.484;2022-12-11T04:23:45;47.77;;;22.87;;
15192;SDS011;7697;51.630;7.484;2022-12-11T04:29:04;54.77;;;23.67;;
15192;SDS011;7697;51.630;7.484;2022-12-11T04:34:07;56.20;;;25.53;;
15192;SDS011;7697;51.630;7.484;2022-12-11T04:39:09;70.53;;;29.27;;
15192;SDS011;7697;51.630;7.484;2022-12-11T04:44:11;60.67;;;25.90;;
15192;SDS011;7697;51.630;7.484;2022-12-11T04:49:14;53.93;;;24.07;;
15192;SDS011;7697;51.630;7.484;2022-12-11T04:54:16;62.57;;;25.90;;
15192;SDS011;7697;51.630;7.484;2022-12-11T04:59:18;51.60;;;23.47;;
15192;SDS011;7697;51.630;7.484;2022-12-11T05:04:21;51.17;;;22.97;;
15192;SDS011;7697;51.630;7.484;2022-12-11T05:09:23;55.80;;;23.63;;
15192;SDS011;7697;51.630;7.484;2022-12-11T05:14:25;48.60;;;23.67;;
15192;SDS011;7697;51.630;7.484;2022-12-11T05:19:30;45.17;;;21.07;;
15192;SDS011;7697;51.630;7.484;2022-12-11T05:24:32;43.87;;;21.40;;
15192;SDS011;7697;51.630;7.484;2022-12-11T05:29:34;43.43;;;20.00;;
15192;SDS011;7697;51.630;7.484;2022-12-11T05:34:37;40.60;;;19.40;;
15192;SDS011;7697;51.630;7.484;2022-12-11T05:39:41;39.63;;;20.90;;
15192;SDS011;7697;51.630;7.484;2022-12-11T05:44:42;41.53;;;20.50;;
15192;SDS011;7697;51.630;7.484;2022-12-11T05:49:45;34.20;;;17.57;;
15192;SDS011;7697;51.630;7.484;2022-12-11T05:54:47;39.77;;;19.13;;
15192;SDS011;7697;51.630;7.484;2022-12-11T05:59:50;36.23;;;18.23;;
15192;SDS011;7697;51.630;7.484;2022-12-11T06:04:53;36.90;;;18.13;;
15192;SDS011;7697;51.630;7.484;2022-12-11T06:09:55;31.93;;;17.67;;
15192;SDS011;7697;51.630;7.484;2022-12-11T06:14:56;40.20;;;20.67;;
15192;SDS011;7697;51.630;7.484;2022-12-11T06:19:59;36.73;;;19.40;;
15192;SDS011;7697;51.630;7.484;2022-12-11T06:25:01;42.00;;;20.40;;
15192;SDS011;7697;51.630;7.484;2022-12-11T06:30:03;37.67;;;18.93;;
15192;SDS011;7697;51.630;7.484;2022-12-11T06:35:07;38.07;;;18.00;;
15192;SDS011;7697;51.630;7.484;2022-12-11T06:40:10;40.33;;;18.80;;
15192;SDS011;7697;51.630;7.484;2022-12-11T06:45:12;35.63;;;17.73;;
15192;SDS011;7697;51.630;7.484;2022-12-11T06:50:16;37.37;;;19.10;;
15192;SDS011;7697;51.630;7.484;2022-12-11T06:55:18;34.40;;;17.67;;
15192;SDS011;7697;51.630;7.484;2022-12-11T07:00:20;32.10;;;17.67;;
15192;SDS011;7697;51.630;7.484;2022-12-11T07:05:23;35.57;;;18.03;;
15192;SDS011;7697;51.630;7.484;2022-12-11T07:10:24;31.87;;;16.80;;
15192;SDS011;7697;51.630;7.484;2022-12-11T07:15:26;32.10;;;17.40;;
15192;SDS011;7697;51.630;7.484;2022-12-11T07:20:29;35.70;;;17.07;;
15192;SDS011;7697;51.630;7.484;2022-12-11T07:25:31;33.63;;;17.23;;
15192;SDS011;7697;51.630;7.484;2022-12-11T07:30:33;40.40;;;20.47;;
15192;SDS011;7697;51.630;7.484;2022-12-11T07:35:36;36.90;;;19.47;;
15192;SDS011;7697;51.630;7.484;2022-12-11T07:40:39;38.57;;;19.67;;
15192;SDS011;7697;51.630;7.484;2022-12-11T07:45:41;33.57;;;18.30;;
15192;SDS011;7697;51.630;7.484;2022-12-11T07:50:44;29.70;;;16.23;;
15192;SDS011;7697;51.630;7.484;2022-12-11T07:55:45;30.37;;;16.67;;
15192;SDS011;7697;51.630;7.484;2022-12-11T08:00:47;28.97;;;15.03;;
15192;SDS011;7697;51.630;7.484;2022-12-11T08:05:51;30.97;;;16.30;;
15192;SDS011;7697;51.630;7.484;2022-12-11T08:10:53;29.90;;;16.80;;
15192;SDS011;7697;51.630;7.484;2022-12-11T08:15:55;36.23;;;17.80;;
15192;SDS011;7697;51.630;7.484;2022-12-11T08:20:58;35.83;;;18.87;;
15192;SDS011;7697;51.630;7.484;2022-12-11T08:26:00;33.23;;;18.93;;
15192;SDS011;7697;51.630;7.484;2022-12-11T08:31:04;35.63;;;18.27;;
15192;SDS011;7697;51.630;7.484;2022-12-11T08:36:09;31.10;;;16.50;;
15192;SDS011;7697;51.630;7.484;2022-12-11T08:41:13;29.10;;;16.17;;
15192;SDS011;7697;51.630;7.484;2022-12-11T08:46:16;28.97;;;15.87;;
15192;SDS011;7697;51.630;7.484;2022-12-11T08:51:20;31.00;;;15.97;;
15192;SDS011;7697;51.630;7.484;2022-12-11T08:56:23;30.30;;;17.20;;
15192;SDS011;7697;51.630;7.484;2022-12-11T09:01:26;33.60;;;19.00;;
15192;SDS011;7697;51.630;7.484;2022-12-11T09:06:31;33.50;;;18.00;;
15192;SDS011;7697;51.630;7.484;2022-12-11T09:11:34;30.17;;;17.30;;
15192;SDS011;7697;51.630;7.484;2022-12-11T09:16:37;29.03;;;15.97;;
15192;SDS011;7697;51.630;7.484;2022-12-11T09:21:42;36.40;;;19.70;;
15192;SDS011;7697;51.630;7.484;2022-12-11T09:26:44;27.60;;;15.93;;
15192;SDS011;7697;51.630;7.484;2022-12-11T09:31:46;34.10;;;18.07;;
15192;SDS011;7697;51.630;7.484;2022-12-11T09:36:50;30.23;;;16.93;;
15192;SDS011;7697;51.630;7.484;2022-12-11T09:41:56;31.60;;;17.93;;
15192;SDS011;7697;51.630;7.484;2022-12-11T09:47:15;28.97;;;16.27;;
15192;SDS011;7697;51.630;7.484;2022-12-11T09:52:24;28.37;;;15.50;;
15192;SDS011;7697;51.630;7.484;2022-12-11T09:57:36;27.07;;;14.63;;
15192;SDS011;7697;51.630;7.484;2022-12-11T10:02:51;27.13;;;14.93;;
15192;SDS011;7697;51.630;7.484;2022-12-11T10:08:18;25.73;;;15.20;;
15192;SDS011;7697;51.630;7.484;2022-12-11T10:13:29;25.33;;;14.27;;
15192;SDS011;7697;51.630;7.484;2022-12-11T10:18:45;24.97;;;14.70;;
15192;SDS011;7697;51.630;7.484;2022-12-11T10:23:51;27.00;;;15.70;;
15192;SDS011;7697;51.630;7.484;2022-12-11T10:28:56;25.43;;;15.07;;
15192;SDS011;7697;51.630;7.484;2022-12-11T10:34:00;20.50;;;13.57;;
15192;SDS011;7697;51.630;7.484;2022-12-11T10:39:10;24.47;;;15.43;;
15192;SDS011;7697;51.630;7.484;2022-12-11T10:44:15;26.27;;;16.03;;
15192;SDS011;7697;51.630;7.484;2022-12-11T10:49:22;20.00;;;13.53;;
15192;SDS011;7697;51.630;7.484;2022-12-11T10:54:29;24.50;;;15.33;;
15192;SDS011;7697;51.630;7.484;2022-12-11T10:59:35;25.90;;;15.43;;
15192;SDS011;7697;51.630;7.484;2022-12-11T11:04:40;23.40;;;14.70;;
15192;SDS011;7697;51.630;7.484;2022-12-11T11:09:45;22.23;;;14.43;;
15192;SDS011;7697;51.630;7.484;2022-12-11T11:14:57;21.10;;;13.17;;
15192;SDS011;7697;51.630;7.484;2022-12-11T11:20:00;22.07;;;14.13;;
15192;SDS011;7697;51.630;7.484;2022-12-11T11:25:15;25.00;;;15.73;;
15192;SDS011;7697;51.630;7.484;2022-12-11T11:30:21;24.60;;;15.17;;
15192;SDS011;7697;51.630;7.484;2022-12-11T11:35:24;22.67;;;14.30;;
15192;SDS011;7697;51.630;7.484;2022-12-11T11:40:30;19.00;;;11.73;;
15192;SDS011;7697;51.630;7.484;2022-12-11T11:45:39;19.47;;;12.50;;
15192;SDS011;7697;51.630;7.484;2022-12-11T11:50:44;24.93;;;14.67;;
15192;SDS011;7697;51.630;7.484;2022-12-11T11:55:52;20.60;;;13.87;;
15192;SDS011;7697;51.630;7.484;2022-12-11T12:01:01;19.77;;;12.80;;
15192;SDS011;7697;51.630;7.484;2022-12-11T12:06:06;22.77;;;13.77;;
15192;SDS011;7697;51.630;7.484;2022-12-11T12:11:20;19.50;;;12.67;;
15192;SDS011;7697;51.630;7.484;2022-12-11T12:16:31;23.23;;;14.47;;
15192;SDS011;7697;51.630;7.484;2022-12-11T12:21:44;24.67;;;15.03;;
15192;SDS011;7697;51.630;7.484;2022-12-11T12:26:53;22.23;;;13.23;;
15192;SDS011;7697;51.630;7.484;2022-12-11T12:32:04;26.33;;;15.80;;
15192;SDS011;7697;51.630;7.484;2022-12-11T12:37:15;21.27;;;13.70;;
15192;SDS011;7697;51.630;7.484;2022-12-11T12:42:31;22.63;;;13.80;;
15192;SDS011;7697;51.630;7.484;2022-12-11T12:47:44;28.97;;;16.67;;
15192;SDS011;7697;51.630;7.484;2022-12-11T12:52:47;25.33;;;16.10;;
15192;SDS011;7697;51.630;7.484;2022-12-11T12:57:53;21.70;;;14.20;;
15192;SDS011;7697;51.630;7.484;2022-12-11T13:02:57;27.87;;;17.27;;
15192;SDS011;7697;51.630;7.484;2022-12-11T13:08:03;24.53;;;14.87;;
15192;SDS011;7697;51.630;7.484;2022-12-11T13:18:33;25.63;;;16.53;;
15192;SDS011;7697;51.630;7.484;2022-12-11T13:23:36;22.73;;;15.13;;
15192;SDS011;7697;51.630;7.484;2022-12-11T13:28:47;24.20;;;15.43;;
15192;SDS011;7697;51.630;7.484;2022-12-11T13:33:51;29.57;;;17.43;;
15192;SDS011;7697;51.630;7.484;2022-12-11T13:39:00;24.77;;;15.87;;
15192;SDS011;7697;51.630;7.484;2022-12-11T13:44:06;20.13;;;12.93;;
15192;SDS011;7697;51.630;7.484;2022-12-11T13:49:20;21.10;;;13.00;;
15192;SDS011;7697;51.630;7.484;2022-12-11T13:54:24;19.00;;;12.80;;
15192;SDS011;7697;51.630;7.484;2022-12-11T13:59:33;18.70;;;12.33;;
15192;SDS011;7697;51.630;7.484;2022-12-11T14:04:38;26.20;;;14.90;;
15192;SDS011;7697;51.630;7.484;2022-12-11T14:09:42;22.63;;;14.40;;
15192;SDS011;7697;51.630;7.484;2022-12-11T14:14:48;23.30;;;14.67;;
15192;SDS011;7697;51.630;7.484;2022-12-11T14:19:52;27.67;;;16.37;;
15192;SDS011;7697;51.630;7.484;2022-12-11T14:24:56;24.53;;;14.77;;
15192;SDS011;7697;51.630;7.484;2022-12-11T14:30:10;25.03;;;16.00;;
15192;SDS011;7697;51.630;7.484;2022-12-11T14:35:17;21.60;;;13.30;;
15192;SDS011;7697;51.630;7.484;2022-12-11T14:40:24;27.87;;;15.30;;
15192;SDS011;7697;51.630;7.484;2022-12-11T14:45:32;28.67;;;16.10;;
15192;SDS011;7697;51.630;7.484;2022-12-11T14:50:48;27.53;;;16.17;;
15192;SDS011;7697;51.630;7.484;2022-12-11T14:55:53;24.57;;;14.87;;
15192;SDS011;7697;51.630;7.484;2022-12-11T15:00:59;22.07;;;13.07;;
15192;SDS011;7697;51.630;7.484;2022-12-11T15:06:19;22.13;;;13.03;;
15192;SDS011;7697;51.630;7.484;2022-12-11T15:11:23;23.00;;;13.93;;
15192;SDS011;7697;51.630;7.484;2022-12-11T15:16:33;22.50;;;13.20;;
15192;SDS011;7697;51.630;7.484;2022-12-11T15:21:39;27.47;;;16.53;;
15192;SDS011;7697;51.630;7.484;2022-12-11T15:26:44;25.87;;;15.27;;
15192;SDS011;7697;51.630;7.484;2022-12-11T15:31:58;23.80;;;13.70;;
15192;SDS011;7697;51.630;7.484;2022-12-11T15:37:01;25.90;;;15.37;;
15192;SDS011;7697;51.630;7.484;2022-12-11T15:42:03;26.67;;;15.37;;
15192;SDS011;7697;51.630;7.484;2022-12-11T15:47:11;27.57;;;15.50;;
15192;SDS011;7697;51.630;7.484;2022-12-11T15:52:14;22.90;;;13.87;;
15192;SDS011;7697;51.630;7.484;2022-12-11T15:57:16;26.30;;;15.00;;
15192;SDS011;7697;51.630;7.484;2022-12-11T16:02:23;26.60;;;16.37;;
15192;SDS011;7697;51.630;7.484;2022-12-11T16:07:25;27.63;;;16.57;;
15192;SDS011;7697;51.630;7.484;2022-12-11T16:12:27;32.47;;;18.50;;
15192;SDS011;7697;51.630;7.484;2022-12-11T16:17:30;35.50;;;19.90;;
15192;SDS011;7697;51.630;7.484;2022-12-11T16:22:33;34.23;;;18.93;;
15192;SDS011;7697;51.630;7.484;2022-12-11T16:27:34;33.10;;;19.67;;
15192;SDS011;7697;51.630;7.484;2022-12-11T16:32:37;33.00;;;19.10;;
15192;SDS011;7697;51.630;7.484;2022-12-11T16:37:39;36.93;;;20.80;;
15192;SDS011;7697;51.630;7.484;2022-12-11T16:42:43;28.73;;;18.47;;
15192;SDS011;7697;51.630;7.484;2022-12-11T16:47:46;26.57;;;16.37;;
15192;SDS011;7697;51.630;7.484;2022-12-11T16:52:48;24.57;;;15.60;;
15192;SDS011;7697;51.630;7.484;2022-12-11T16:57:50;27.60;;;17.90;;
15192;SDS011;7697;51.630;7.484;2022-12-11T17:02:53;27.10;;;16.77;;
15192;SDS011;7697;51.630;7.484;2022-12-11T17:07:55;25.10;;;16.03;;
15192;SDS011;7697;51.630;7.484;2022-12-11T17:12:58;28.57;;;17.10;;
15192;SDS011;7697;51.630;7.484;2022-12-11T17:18:01;25.80;;;17.10;;
15192;SDS011;7697;51.630;7.484;2022-12-11T17:23:03;23.10;;;15.17;;
15192;SDS011;7697;51.630;7.484;2022-12-11T17:28:04;23.10;;;15.70;;
15192;SDS011;7697;51.630;7.484;2022-12-11T17:33:08;31.03;;;18.97;;
15192;SDS011;7697;51.630;7.484;2022-12-11T17:38:10;29.20;;;18.33;;
15192;SDS011;7697;51.630;7.484;2022-12-11T17:43:12;27.40;;;17.27;;
15192;SDS011;7697;51.630;7.484;2022-12-11T17:48:15;25.73;;;17.43;;
15192;SDS011;7697;51.630;7.484;2022-12-11T17:53:17;29.63;;;18.33;;
15192;SDS011;7697;51.630;7.484;2022-12-11T17:58:21;24.93;;;16.57;;
15192;SDS011;7697;51.630;7.484;2022-12-11T18:03:25;22.70;;;15.07;;
15192;SDS011;7697;51.630;7.484;2022-12-11T18:08:28;21.17;;;13.60;;
15192;SDS011;7697;51.630;7.484;2022-12-11T18:13:30;22.30;;;13.93;;
15192;SDS011;7697;51.630;7.484;2022-12-11T18:18:34;20.57;;;12.70;;
15192;SDS011;7697;51.630;7.484;2022-12-11T18:23:39;20.40;;;12.47;;
15192;SDS011;7697;51.630;7.484;2022-12-11T18:28:41;18.70;;;12.33;;
15192;SDS011;7697;51.630;7.484;2022-12-11T18:33:45;19.20;;;12.17;;
15192;SDS011;7697;51.630;7.484;2022-12-11T18:38:47;23.13;;;14.13;;
15192;SDS011;7697;51.630;7.484;2022-12-11T18:43:49;21.63;;;13.37;;
15192;SDS011;7697;51.630;7.484;2022-12-11T18:48:52;25.30;;;16.17;;
15192;SDS011;7697;51.630;7.484;2022-12-11T18:53:54;30.20;;;17.60;;
15192;SDS011;7697;51.630;7.484;2022-12-11T18:58:55;26.57;;;18.40;;
15192;SDS011;7697;51.630;7.484;2022-12-11T19:03:59;26.93;;;18.10;;
15192;SDS011;7697;51.630;7.484;2022-12-11T19:09:02;24.07;;;16.23;;
15192;SDS011;7697;51.630;7.484;2022-12-11T19:14:06;22.80;;;15.40;;
15192;SDS011;7697;51.630;7.484;2022-12-11T19:19:10;23.70;;;15.50;;
15192;SDS011;7697;51.630;7.484;2022-12-11T19:24:14;21.93;;;15.00;;
15192;SDS011;7697;51.630;7.484;2022-12-11T19:29:19;23.87;;;16.63;;
15192;SDS011;7697;51.630;7.484;2022-12-11T19:34:24;21.07;;;14.43;;
15192;SDS011;7697;51.630;7.484;2022-12-11T19:39:27;21.30;;;15.13;;
15192;SDS011;7697;51.630;7.484;2022-12-11T19:44:29;20.53;;;14.80;;
15192;SDS011;7697;51.630;7.484;2022-12-11T19:49:32;20.37;;;13.37;;
15192;SDS011;7697;51.630;7.484;2022-12-11T19:54:34;16.70;;;12.10;;
15192;SDS011;7697;51.630;7.484;2022-12-11T19:59:36;19.00;;;12.47;;
15192;SDS011;7697;51.630;7.484;2022-12-11T20:04:39;21.00;;;13.27;;
15192;SDS011;7697;51.630;7.484;2022-12-11T20:09:41;16.77;;;12.17;;
15192;SDS011;7697;51.630;7.484;2022-12-11T20:14:42;19.80;;;13.63;;
15192;SDS011;7697;51.630;7.484;2022-12-11T20:19:49;17.70;;;11.93;;
15192;SDS011;7697;51.630;7.484;2022-12-11T20:24:50;22.47;;;14.47;;
15192;SDS011;7697;51.630;7.484;2022-12-11T20:29:52;21.20;;;14.43;;
15192;SDS011;7697;51.630;7.484;2022-12-11T20:34:55;18.40;;;12.07;;
15192;SDS011;7697;51.630;7.484;2022-12-11T20:39:58;16.63;;;11.20;;
15192;SDS011;7697;51.630;7.484;2022-12-11T20:45:00;16.63;;;11.90;;
15192;SDS011;7697;51.630;7.484;2022-12-11T20:50:03;19.17;;;11.93;;
15192;SDS011;7697;51.630;7.484;2022-12-11T20:55:08;18.50;;;13.00;;
15192;SDS011;7697;51.630;7.484;2022-12-11T21:00:11;20.40;;;13.17;;
15192;SDS011;7697;51.630;7.484;2022-12-11T21:05:15;20.60;;;13.37;;
15192;SDS011;7697;51.630;7.484;2022-12-11T21:10:17;29.90;;;18.90;;
15192;SDS011;7697;51.630;7.484;2022-12-11T21:15:19;30.53;;;19.47;;
15192;SDS011;7697;51.630;7.484;2022-12-11T21:20:24;24.90;;;17.23;;
15192;SDS011;7697;51.630;7.484;2022-12-11T21:25:26;23.33;;;15.50;;
15192;SDS011;7697;51.630;7.484;2022-12-11T21:30:31;22.33;;;15.70;;
15192;SDS011;7697;51.630;7.484;2022-12-11T21:35:35;23.80;;;16.43;;
15192;SDS011;7697;51.630;7.484;2022-12-11T21:40:36;25.80;;;16.03;;
15192;SDS011;7697;51.630;7.484;2022-12-11T21:45:38;24.73;;;15.80;;
15192;SDS011;7697;51.630;7.484;2022-12-11T21:50:41;21.23;;;14.30;;
15192;SDS011;7697;51.630;7.484;2022-12-11T21:55:43;23.87;;;16.33;;
15192;SDS011;7697;51.630;7.484;2022-12-11T22:00:50;25.87;;;16.90;;
15192;SDS011;7697;51.630;7.484;2022-12-11T22:05:53;23.70;;;15.90;;
15192;SDS011;7697;51.630;7.484;2022-12-11T22:10:55;21.70;;;15.57;;
15192;SDS011;7697;51.630;7.484;2022-12-11T22:15:56;22.00;;;14.43;;
15192;SDS011;7697;51.630;7.484;2022-12-11T22:21:03;20.40;;;14.77;;
15192;SDS011;7697;51.630;7.484;2022-12-11T22:26:05;24.97;;;16.27;;
15192;SDS011;7697;51.630;7.484;2022-12-11T22:31:11;20.67;;;14.20;;
15192;SDS011;7697;51.630;7.484;2022-12-11T22:36:15;20.13;;;13.33;;
15192;SDS011;7697;51.630;7.484;2022-12-11T22:41:19;18.77;;;12.67;;
15192;SDS011;7697;51.630;7.484;2022-12-11T22:46:25;18.63;;;12.73;;
15192;SDS011;7697;51.630;7.484;2022-12-11T22:51:42;18.53;;;12.93;;
15192;SDS011;7697;51.630;7.484;2022-12-11T22:56:44;21.87;;;14.00;;
15192;SDS011;7697;51.630;7.484;2022-12-11T23:01:48;19.70;;;14.07;;
15192;SDS011;7697;51.630;7.484;2022-12-11T23:06:51;22.03;;;14.27;;
15192;SDS011;7697;51.630;7.484;2022-12-11T23:11:53;20.90;;;13.80;;
15192;SDS011;7697;51.630;7.484;2022-12-11T23:16:57;19.40;;;13.70;;
15192;SDS011;7697;51.630;7.484;2022-12-11T23:22:07;20.30;;;13.87;;
15192;SDS011;7697;51.630;7.484;2022-12-11T23:27:21;17.37;;;12.87;;
15192;SDS011;7697;51.630;7.484;2022-12-11T23:32:25;17.20;;;12.27;;
15192;SDS011;7697;51.630;7.484;2022-12-11T23:37:29;22.53;;;15.40;;
15192;SDS011;7697;51.630;7.484;2022-12-11T23:42:31;20.67;;;14.60;;
15192;SDS011;7697;51.630;7.484;2022-12-11T23:47:36;19.20;;;12.90;;
15192;SDS011;7697;51.630;7.484;2022-12-11T23:52:43;17.93;;;13.03;;
15192;SDS011;7697;51.630;7.484;2022-12-11T23:57:51;17.77;;;12.33;;
